createdAt,value
2018-03-06T00:01:11.807Z,0.01
2018-03-06T00:02:11.736Z,-0.01
2018-03-06T00:04:03.504Z,0.07
2018-03-06T00:05:03.396Z,-0.03
2018-03-06T00:06:55.127Z,-0.02
2018-03-06T00:07:55.056Z,-0.09
2018-03-06T00:09:46.816Z,-0.08
2018-03-06T00:10:46.729Z,-0.01
2018-03-06T00:12:39.073Z,0.15
2018-03-06T00:13:38.915Z,0.01
2018-03-06T00:15:30.671Z,0.08
2018-03-06T00:16:30.584Z,0.13
2018-03-06T00:18:22.339Z,0.13
2018-03-06T00:19:22.268Z,0.13
2018-03-06T00:21:14.028Z,0.17
2018-03-06T00:22:13.949Z,0.10
2018-03-06T00:24:05.684Z,0.23
2018-03-06T00:25:05.634Z,0.25
2018-03-06T00:26:57.441Z,0.22
2018-03-06T00:27:57.281Z,0.28
2018-03-06T00:29:49.023Z,0.33
2018-03-06T00:30:48.952Z,0.43
2018-03-06T00:32:40.723Z,0.45
2018-03-06T00:33:40.637Z,0.48
2018-03-06T00:35:32.415Z,0.59
2018-03-06T00:36:32.305Z,0.60
2018-03-06T00:38:24.077Z,0.56
2018-03-06T00:39:23.978Z,0.62
2018-03-06T00:41:15.765Z,0.56
2018-03-06T00:42:15.667Z,0.48
2018-03-06T00:44:07.424Z,0.49
2018-03-06T00:45:07.361Z,0.57
2018-03-06T00:46:59.118Z,0.45
2018-03-06T00:47:59.014Z,0.37
2018-03-06T00:49:50.764Z,0.20
2018-03-06T00:50:50.689Z,0.16
2018-03-06T00:52:42.441Z,0.13
2018-03-06T00:53:42.361Z,0.05
2018-03-06T00:55:34.131Z,-0.09
2018-03-06T00:56:34.054Z,-0.19
2018-03-06T00:58:25.787Z,-0.24
2018-03-06T00:59:25.713Z,-0.23
2018-03-06T01:01:17.442Z,-0.42
2018-03-06T01:02:17.373Z,-0.37
2018-03-06T01:04:09.112Z,-0.41
2018-03-06T01:05:09.025Z,-0.52
2018-03-06T01:07:00.767Z,-0.58
2018-03-06T01:08:00.696Z,-0.58
2018-03-06T01:09:52.450Z,-0.71
2018-03-06T01:10:52.371Z,-0.80
2018-03-06T01:12:44.114Z,-0.76
2018-03-06T01:13:44.040Z,-0.71
2018-03-06T01:15:35.795Z,-0.81
2018-03-06T01:16:35.715Z,-0.78
2018-03-06T01:18:27.490Z,-0.74
2018-03-06T01:19:27.409Z,-0.77
2018-03-06T01:21:19.190Z,-0.92
2018-03-06T01:22:19.089Z,-0.86
2018-03-06T01:24:10.845Z,-0.89
2018-03-06T01:25:10.754Z,-0.89
2018-03-06T01:27:02.514Z,-0.83
2018-03-06T01:28:02.441Z,-0.90
2018-03-06T01:29:54.179Z,-0.90
2018-03-06T01:30:54.147Z,-0.89
2018-03-06T01:32:45.901Z,-0.99
2018-03-06T01:33:45.828Z,-0.96
2018-03-06T01:35:37.590Z,-0.96
2018-03-06T01:36:37.519Z,-0.99
2018-03-06T01:38:29.266Z,-0.93
2018-03-06T01:39:29.187Z,-0.95
2018-03-06T01:41:20.940Z,-0.92
2018-03-06T01:42:20.849Z,-0.81
2018-03-06T01:44:12.600Z,-0.89
2018-03-06T01:45:12.530Z,-0.90
2018-03-06T01:47:04.272Z,-0.99
2018-03-06T01:48:04.220Z,-1.07
2018-03-06T01:49:55.944Z,-0.97
2018-03-06T01:50:55.876Z,-1.03
2018-03-06T01:52:47.620Z,-1.02
2018-03-06T01:53:47.538Z,-1.05
2018-03-06T01:55:39.274Z,-1.05
2018-03-06T01:56:39.212Z,-1.07
2018-03-06T01:58:30.948Z,-1.05
2018-03-06T01:59:30.866Z,-1.07
2018-03-06T02:01:22.631Z,-1.05
2018-03-06T02:02:22.534Z,-1.10
2018-03-06T02:04:14.294Z,-1.07
2018-03-06T02:05:14.215Z,-1.03
2018-03-06T02:07:05.987Z,-1.05
2018-03-06T02:08:05.884Z,-1.10
2018-03-06T02:09:57.658Z,-1.18
2018-03-06T02:10:57.606Z,-1.17
2018-03-06T02:12:49.322Z,-1.28
2018-03-06T02:13:49.235Z,-1.23
2018-03-06T02:15:40.981Z,-1.25
2018-03-06T02:16:40.901Z,-1.18
2018-03-06T02:18:32.657Z,-1.07
2018-03-06T02:19:32.579Z,-1.08
2018-03-06T02:21:24.328Z,-1.15
2018-03-06T02:22:24.256Z,-1.08
2018-03-06T02:24:16.002Z,-1.18
2018-03-06T02:25:15.916Z,-1.14
2018-03-06T02:27:07.666Z,-1.08
2018-03-06T02:28:07.602Z,-1.07
2018-03-06T02:29:59.350Z,-1.00
2018-03-06T02:30:59.269Z,-1.03
2018-03-06T02:32:51.026Z,-1.13
2018-03-06T02:33:50.950Z,-1.15
2018-03-06T02:35:42.718Z,-1.23
2018-03-06T02:36:42.616Z,-1.21
2018-03-06T02:38:34.393Z,-1.15
2018-03-06T02:39:34.290Z,-1.15
2018-03-06T02:41:26.048Z,-1.17
2018-03-06T02:42:25.978Z,-1.13
2018-03-06T02:44:17.755Z,-1.08
2018-03-06T02:45:17.642Z,-1.05
2018-03-06T02:47:09.424Z,-1.07
2018-03-06T02:48:09.303Z,-1.07
2018-03-06T02:50:01.071Z,-1.02
2018-03-06T02:51:00.976Z,-1.08
2018-03-06T02:52:52.737Z,-1.15
2018-03-06T02:53:52.661Z,-1.13
2018-03-06T02:55:44.428Z,-1.11
2018-03-06T02:56:44.343Z,-1.10
2018-03-06T02:58:36.082Z,-1.15
2018-03-06T02:59:36.020Z,-1.29
2018-03-06T03:01:27.775Z,-1.23
2018-03-06T03:02:27.691Z,-1.28
2018-03-06T03:04:19.438Z,-1.28
2018-03-06T03:05:19.363Z,-1.18
2018-03-06T03:07:11.132Z,-1.31
2018-03-06T03:08:11.049Z,-1.23
2018-03-06T03:10:02.786Z,-1.21
2018-03-06T03:11:02.717Z,-1.15
2018-03-06T03:12:54.468Z,-1.14
2018-03-06T03:13:54.389Z,-1.13
2018-03-06T03:15:46.138Z,-1.13
2018-03-06T03:16:46.054Z,-1.20
2018-03-06T03:18:37.819Z,-1.08
2018-03-06T03:19:37.715Z,-1.15
2018-03-06T03:21:29.463Z,-1.14
2018-03-06T03:22:29.387Z,-1.23
2018-03-06T03:24:21.124Z,-1.13
2018-03-06T03:25:21.046Z,-1.21
2018-03-06T03:27:12.832Z,-1.26
2018-03-06T03:28:12.730Z,-1.31
2018-03-06T03:30:04.569Z,-1.35
2018-03-06T03:31:04.501Z,-1.41
2018-03-06T03:32:56.272Z,-1.41
2018-03-06T03:33:56.182Z,-1.47
2018-03-06T03:35:48.010Z,-1.38
2018-03-06T03:36:47.866Z,-1.38
2018-03-06T03:38:39.634Z,-1.41
2018-03-06T03:39:39.549Z,-1.44
2018-03-06T03:41:31.303Z,-1.49
2018-03-06T03:42:31.218Z,-1.62
2018-03-06T03:44:22.957Z,-1.53
2018-03-06T03:45:22.886Z,-1.56
2018-03-06T03:47:14.636Z,-1.67
2018-03-06T03:48:14.555Z,-1.61
2018-03-06T03:50:06.326Z,-1.74
2018-03-06T03:51:06.252Z,-1.77
2018-03-06T03:52:57.990Z,-1.74
2018-03-06T03:53:57.910Z,-1.75
2018-03-06T03:55:49.680Z,-1.77
2018-03-06T03:56:49.582Z,-1.70
2018-03-06T03:58:41.309Z,-1.75
2018-03-06T03:59:41.242Z,-1.65
2018-03-06T04:01:32.993Z,-1.68
2018-03-06T04:02:32.908Z,-1.62
2018-03-06T04:04:24.654Z,-1.54
2018-03-06T04:05:24.572Z,-1.54
2018-03-06T04:07:16.317Z,-1.50
2018-03-06T04:08:16.232Z,-1.51
2018-03-06T04:10:07.980Z,-1.46
2018-03-06T04:11:07.910Z,-1.47
2018-03-06T04:12:59.680Z,-1.44
2018-03-06T04:13:59.593Z,-1.38
2018-03-06T04:15:51.343Z,-1.46
2018-03-06T04:16:51.269Z,-1.43
2018-03-06T04:18:43.031Z,-1.32
2018-03-06T04:19:42.945Z,-1.33
2018-03-06T04:21:34.680Z,-1.46
2018-03-06T04:22:34.605Z,-1.33
2018-03-06T04:24:26.375Z,-1.43
2018-03-06T04:25:26.297Z,-1.53
2018-03-06T04:27:18.026Z,-1.43
2018-03-06T04:28:17.953Z,-1.49
2018-03-06T04:30:09.692Z,-1.50
2018-03-06T04:31:09.619Z,-1.64
2018-03-06T04:33:01.359Z,-1.53
2018-03-06T04:34:01.290Z,-1.65
2018-03-06T04:35:53.034Z,-1.61
2018-03-06T04:36:52.951Z,-1.54
2018-03-06T04:38:44.699Z,-1.56
2018-03-06T04:39:44.619Z,-1.57
2018-03-06T04:41:36.349Z,-1.59
2018-03-06T04:42:36.275Z,-1.59
2018-03-06T04:44:28.037Z,-1.65
2018-03-06T04:45:27.956Z,-1.61
2018-03-06T04:47:19.697Z,-1.64
2018-03-06T04:48:19.648Z,-1.59
2018-03-06T04:50:11.384Z,-1.51
2018-03-06T04:51:11.303Z,-1.51
2018-03-06T04:53:03.043Z,-1.50
2018-03-06T04:54:02.967Z,-1.57
2018-03-06T04:55:54.744Z,-1.47
2018-03-06T04:56:54.712Z,-1.49
2018-03-06T04:58:46.458Z,-1.61
2018-03-06T04:59:46.385Z,-1.64
2018-03-06T05:01:38.131Z,-1.49
2018-03-06T05:02:38.046Z,-1.54
2018-03-06T05:04:29.786Z,-1.65
2018-03-06T05:05:29.706Z,-1.54
2018-03-06T05:07:21.468Z,-1.38
2018-03-06T05:08:21.385Z,-1.47
2018-03-06T05:10:13.122Z,-1.47
2018-03-06T05:11:13.049Z,-1.47
2018-03-06T05:13:04.807Z,-1.41
2018-03-06T05:14:04.747Z,-1.35
2018-03-06T05:15:56.520Z,-1.47
2018-03-06T05:16:56.412Z,-1.41
2018-03-06T05:18:48.181Z,-1.38
2018-03-06T05:19:48.076Z,-1.46
2018-03-06T05:21:39.822Z,-1.44
2018-03-06T05:22:39.740Z,-1.43
2018-03-06T05:24:31.485Z,-1.54
2018-03-06T05:25:31.414Z,-1.49
2018-03-06T05:27:23.189Z,-1.38
2018-03-06T05:28:23.097Z,-1.56
2018-03-06T05:30:14.833Z,-1.56
2018-03-06T05:31:14.765Z,-1.62
2018-03-06T05:33:06.541Z,-1.51
2018-03-06T05:34:06.452Z,-1.56
2018-03-06T05:35:58.199Z,-1.51
2018-03-06T05:36:58.154Z,-1.47
2018-03-06T05:38:49.899Z,-1.38
2018-03-06T05:39:49.818Z,-1.50
2018-03-06T05:41:41.567Z,-1.54
2018-03-06T05:42:41.773Z,-1.51
2018-03-06T05:44:33.288Z,-1.56
2018-03-06T05:45:33.198Z,-1.46
2018-03-06T05:47:24.932Z,-1.57
2018-03-06T05:48:24.866Z,-1.56
2018-03-06T05:50:16.673Z,-1.53
2018-03-06T05:51:16.588Z,-1.53
2018-03-06T05:53:08.339Z,-1.54
2018-03-06T05:54:08.264Z,-1.53
2018-03-06T05:56:00.013Z,-1.47
2018-03-06T05:56:59.934Z,-1.50
2018-03-06T05:58:51.664Z,-1.39
2018-03-06T05:59:51.601Z,-1.39
2018-03-06T06:01:43.335Z,-1.46
2018-03-06T06:02:43.272Z,-1.46
2018-03-06T06:04:35.199Z,-1.41
2018-03-06T06:05:34.976Z,-1.46
2018-03-06T06:07:26.743Z,-1.31
2018-03-06T06:08:26.640Z,-1.29
2018-03-06T06:10:18.404Z,-1.29
2018-03-06T06:11:18.319Z,-1.29
2018-03-06T06:13:10.054Z,-1.31
2018-03-06T06:14:09.984Z,-1.26
2018-03-06T06:16:01.730Z,-1.28
2018-03-06T06:17:01.642Z,-1.25
2018-03-06T06:18:53.383Z,-1.21
2018-03-06T06:19:53.324Z,-1.21
2018-03-06T06:21:45.069Z,-1.20
2018-03-06T06:22:44.982Z,-1.11
2018-03-06T06:24:36.742Z,-1.05
2018-03-06T06:25:36.653Z,-0.96
2018-03-06T06:27:28.427Z,-0.86
2018-03-06T06:28:28.344Z,-0.86
2018-03-06T06:30:20.086Z,-0.85
2018-03-06T06:31:20.020Z,-0.77
2018-03-06T06:33:11.797Z,-0.73
2018-03-06T06:34:11.703Z,-0.70
2018-03-06T06:36:03.461Z,-0.67
2018-03-06T06:37:03.381Z,-0.62
2018-03-06T06:38:55.150Z,-0.55
2018-03-06T06:39:55.049Z,-0.50
2018-03-06T06:41:46.822Z,-0.37
2018-03-06T06:42:46.758Z,-0.39
2018-03-06T06:44:38.465Z,-0.26
2018-03-06T06:45:38.387Z,-0.21
2018-03-06T06:47:30.253Z,-0.06
2018-03-06T06:48:30.141Z,-0.14
2018-03-06T06:50:21.875Z,0.13
2018-03-06T06:51:21.804Z,0.01
2018-03-06T06:53:13.566Z,0.16
2018-03-06T06:54:13.499Z,0.23
2018-03-06T06:56:05.230Z,0.30
2018-03-06T06:57:05.155Z,0.41
2018-03-06T06:58:56.935Z,0.48
2018-03-06T06:59:56.848Z,0.57
2018-03-06T07:01:48.591Z,0.64
2018-03-06T07:02:48.523Z,0.64
2018-03-06T07:04:40.266Z,0.77
2018-03-06T07:05:40.191Z,0.68
2018-03-06T07:07:31.925Z,0.86
2018-03-06T07:08:31.856Z,0.89
2018-03-06T07:10:23.645Z,1.02
2018-03-06T07:11:23.544Z,1.00
2018-03-06T07:13:15.338Z,1.18
2018-03-06T07:14:15.225Z,1.18
2018-03-06T07:16:06.971Z,1.32
2018-03-06T07:17:06.898Z,1.38
2018-03-06T07:18:58.670Z,1.42
2018-03-06T07:19:58.569Z,1.43
2018-03-06T07:21:50.308Z,1.52
2018-03-06T07:22:50.247Z,1.53
2018-03-06T07:24:42.004Z,1.67
2018-03-06T07:25:41.922Z,1.64
2018-03-06T07:27:33.696Z,1.82
2018-03-06T07:28:33.622Z,1.77
2018-03-06T07:30:25.379Z,1.85
2018-03-06T07:31:25.334Z,1.89
2018-03-06T07:33:17.085Z,1.98
2018-03-06T07:34:17.013Z,1.98
2018-03-06T07:36:08.796Z,2.04
2018-03-06T07:37:08.724Z,2.33
2018-03-06T07:39:00.471Z,2.27
2018-03-06T07:40:00.394Z,2.32
2018-03-06T07:41:52.163Z,2.29
2018-03-06T07:42:52.083Z,2.45
2018-03-06T07:44:43.840Z,2.56
2018-03-06T07:45:43.782Z,2.63
2018-03-06T07:47:35.531Z,2.87
2018-03-06T07:48:35.458Z,2.89
2018-03-06T07:50:27.209Z,3.05
2018-03-06T07:51:27.158Z,3.10
2018-03-06T07:53:18.911Z,3.30
2018-03-06T07:54:18.829Z,3.30
2018-03-06T07:56:10.618Z,3.52
2018-03-06T07:57:10.579Z,3.67
2018-03-06T07:59:02.272Z,3.80
2018-03-06T08:00:02.202Z,3.75
2018-03-06T08:01:54.016Z,3.81
2018-03-06T08:02:53.964Z,3.82
2018-03-06T08:04:45.694Z,3.98
2018-03-06T08:05:45.622Z,3.99
2018-03-06T08:07:37.387Z,3.92
2018-03-06T08:08:37.304Z,3.98
2018-03-06T08:10:29.101Z,3.90
2018-03-06T08:11:29.031Z,3.78
2018-03-06T08:13:20.818Z,3.78
2018-03-06T08:14:20.735Z,3.98
2018-03-06T08:16:12.500Z,4.08
2018-03-06T08:17:12.434Z,4.07
2018-03-06T08:19:04.231Z,4.24
2018-03-06T08:20:04.117Z,4.10
2018-03-06T08:21:55.911Z,4.34
2018-03-06T08:22:55.821Z,4.43
2018-03-06T08:24:47.593Z,4.72
2018-03-06T08:25:47.507Z,4.77
2018-03-06T08:27:39.278Z,4.56
2018-03-06T08:28:39.212Z,4.77
2018-03-06T08:30:30.949Z,4.90
2018-03-06T08:31:30.883Z,5.06
2018-03-06T08:33:22.661Z,5.08
2018-03-06T08:34:22.582Z,5.06
2018-03-06T08:36:14.320Z,5.15
2018-03-06T08:37:14.253Z,5.22
2018-03-06T08:39:06.014Z,5.56
2018-03-06T08:40:05.943Z,5.59
2018-03-06T08:41:57.709Z,5.77
2018-03-06T08:42:57.639Z,5.85
2018-03-06T08:44:49.438Z,5.93
2018-03-06T08:45:49.347Z,5.96
2018-03-06T08:47:41.135Z,6.03
2018-03-06T08:48:41.073Z,6.16
2018-03-06T08:50:32.870Z,6.19
2018-03-06T08:51:32.799Z,6.45
2018-03-06T08:53:24.630Z,6.79
2018-03-06T08:54:24.520Z,6.72
2018-03-06T08:56:16.350Z,6.90
2018-03-06T08:57:16.281Z,6.81
2018-03-06T08:59:08.037Z,6.96
2018-03-06T09:00:07.976Z,6.99
2018-03-06T09:01:59.754Z,7.12
2018-03-06T09:02:59.682Z,7.07
2018-03-06T09:04:51.486Z,7.15
2018-03-06T09:05:51.382Z,7.08
2018-03-06T09:07:43.144Z,7.18
2018-03-06T09:08:43.087Z,7.23
2018-03-06T09:10:34.877Z,7.48
2018-03-06T09:11:34.786Z,7.45
2018-03-06T09:13:26.609Z,7.63
2018-03-06T09:14:26.486Z,7.44
2018-03-06T09:16:18.258Z,7.44
2018-03-06T09:17:18.192Z,7.62
2018-03-06T09:19:09.933Z,7.73
2018-03-06T09:20:09.877Z,7.66
2018-03-06T09:22:01.644Z,7.16
2018-03-06T09:23:01.578Z,7.12
2018-03-06T09:24:53.349Z,6.71
2018-03-06T09:25:53.285Z,6.48
2018-03-06T09:27:45.096Z,6.48
2018-03-06T09:28:45.028Z,6.35
2018-03-06T09:30:36.794Z,6.24
2018-03-06T09:31:36.734Z,6.36
2018-03-06T09:33:28.504Z,6.32
2018-03-06T09:34:28.433Z,6.40
2018-03-06T09:36:20.192Z,6.43
2018-03-06T09:37:20.121Z,6.53
2018-03-06T09:39:11.995Z,6.78
2018-03-06T09:40:11.923Z,6.90
2018-03-06T09:42:03.631Z,7.14
2018-03-06T09:43:03.528Z,7.19
2018-03-06T09:44:55.299Z,7.45
2018-03-06T09:45:55.246Z,7.52
2018-03-06T09:47:47.024Z,7.62
2018-03-06T09:48:46.975Z,7.50
2018-03-06T09:50:38.699Z,7.62
2018-03-06T09:51:38.646Z,7.73
2018-03-06T09:53:30.421Z,7.57
2018-03-06T09:54:30.351Z,7.54
2018-03-06T09:56:22.111Z,7.52
2018-03-06T09:57:22.073Z,7.74
2018-03-06T09:59:13.816Z,7.37
2018-03-06T10:00:13.772Z,7.51
2018-03-06T10:02:05.551Z,7.51
2018-03-06T10:03:05.512Z,7.45
2018-03-06T10:04:57.269Z,7.27
2018-03-06T10:05:57.189Z,7.21
2018-03-06T10:07:48.940Z,7.09
2018-03-06T10:08:48.877Z,7.09
2018-03-06T10:10:40.650Z,7.16
2018-03-06T10:11:40.587Z,7.27
2018-03-06T10:13:32.354Z,7.33
2018-03-06T10:14:32.276Z,7.36
2018-03-06T10:16:24.066Z,7.30
2018-03-06T10:17:24.001Z,7.44
2018-03-06T10:19:15.928Z,7.47
2018-03-06T10:20:15.743Z,7.51
2018-03-06T10:22:07.457Z,7.71
2018-03-06T10:23:07.391Z,7.63
2018-03-06T10:24:59.199Z,7.88
2018-03-06T10:25:59.111Z,7.99
2018-03-06T10:27:50.894Z,7.62
2018-03-06T10:28:50.805Z,7.47
2018-03-06T10:30:42.573Z,7.50
2018-03-06T10:31:42.524Z,7.48
2018-03-06T10:33:34.323Z,7.37
2018-03-06T10:34:34.254Z,7.50
2018-03-06T10:36:26.075Z,7.63
2018-03-06T10:37:25.968Z,7.67
2018-03-06T10:39:17.739Z,7.79
2018-03-06T10:40:17.648Z,7.84
2018-03-06T10:42:09.408Z,7.50
2018-03-06T10:43:09.349Z,7.62
2018-03-06T10:45:01.175Z,7.63
2018-03-06T10:46:01.105Z,7.58
2018-03-06T10:47:52.861Z,7.44
2018-03-06T10:48:52.798Z,7.42
2018-03-06T10:50:44.571Z,7.47
2018-03-06T10:51:44.497Z,7.50
2018-03-06T10:53:36.285Z,7.54
2018-03-06T10:54:36.192Z,7.37
2018-03-06T10:56:27.990Z,7.34
2018-03-06T10:57:27.886Z,7.30
2018-03-06T10:59:19.640Z,7.32
2018-03-06T11:00:19.574Z,7.47
2018-03-06T11:02:11.350Z,7.54
2018-03-06T11:03:11.268Z,7.70
2018-03-06T11:05:03.040Z,7.76
2018-03-06T11:06:02.952Z,7.81
2018-03-06T11:07:54.714Z,7.89
2018-03-06T11:08:54.647Z,7.92
2018-03-06T11:10:46.420Z,7.67
2018-03-06T11:11:46.346Z,7.71
2018-03-06T11:13:38.105Z,7.88
2018-03-06T11:14:38.047Z,7.76
2018-03-06T11:16:29.816Z,7.96
2018-03-06T11:17:29.736Z,7.95
2018-03-06T11:19:21.565Z,7.82
2018-03-06T11:20:21.436Z,7.70
2018-03-06T11:22:13.248Z,7.41
2018-03-06T11:23:13.198Z,7.44
2018-03-06T11:25:04.906Z,7.44
2018-03-06T11:26:04.843Z,7.30
2018-03-06T11:27:56.611Z,7.41
2018-03-06T11:28:56.543Z,7.37
2018-03-06T11:30:48.316Z,7.26
2018-03-06T11:31:48.243Z,7.34
2018-03-06T11:33:39.998Z,7.58
2018-03-06T11:34:39.924Z,7.76
2018-03-06T11:36:31.687Z,7.88
2018-03-06T11:37:31.614Z,7.88
2018-03-06T11:39:23.379Z,8.03
2018-03-06T11:40:23.308Z,8.13
2018-03-06T11:42:15.087Z,8.06
2018-03-06T11:43:15.011Z,7.95
2018-03-06T11:45:06.776Z,7.73
2018-03-06T11:46:06.709Z,7.74
2018-03-06T11:47:58.486Z,7.74
2018-03-06T11:48:58.420Z,7.69
2018-03-06T11:50:50.180Z,7.84
2018-03-06T11:51:50.116Z,7.82
2018-03-06T11:53:41.875Z,7.94
2018-03-06T11:54:41.816Z,7.79
2018-03-06T11:56:33.606Z,7.45
2018-03-06T11:57:33.495Z,7.45
2018-03-06T11:59:25.275Z,7.69
2018-03-06T12:00:25.195Z,7.52
2018-03-06T12:02:16.997Z,7.69
2018-03-06T12:03:16.971Z,7.62
2018-03-06T12:05:08.653Z,7.42
2018-03-06T12:06:08.587Z,7.52
2018-03-06T12:08:00.349Z,7.26
2018-03-06T12:09:00.278Z,7.14
2018-03-06T12:10:52.032Z,7.21
2018-03-06T12:11:51.974Z,7.24
2018-03-06T12:13:43.751Z,7.33
2018-03-06T12:14:43.662Z,7.45
2018-03-06T12:16:35.410Z,7.60
2018-03-06T12:17:35.345Z,7.52
2018-03-06T12:19:27.142Z,7.33
2018-03-06T12:20:27.049Z,7.30
2018-03-06T12:22:18.803Z,7.70
2018-03-06T12:23:18.738Z,7.50
2018-03-06T12:25:10.504Z,7.71
2018-03-06T12:26:10.427Z,7.62
2018-03-06T12:28:02.214Z,7.60
2018-03-06T12:29:02.136Z,7.58
2018-03-06T12:30:53.910Z,7.33
2018-03-06T12:31:53.853Z,7.15
2018-03-06T12:33:45.626Z,7.04
2018-03-06T12:34:45.560Z,7.01
2018-03-06T12:36:37.301Z,6.99
2018-03-06T12:37:37.238Z,7.07
2018-03-06T12:39:29.000Z,7.12
2018-03-06T12:40:28.931Z,7.16
2018-03-06T12:42:20.686Z,7.09
2018-03-06T12:43:20.617Z,7.00
2018-03-06T12:45:12.378Z,7.05
2018-03-06T12:46:12.307Z,7.08
2018-03-06T12:48:04.057Z,6.99
2018-03-06T12:49:04.005Z,7.01
2018-03-06T12:50:55.754Z,7.19
2018-03-06T12:51:55.671Z,7.21
2018-03-06T12:53:47.421Z,7.45
2018-03-06T12:54:47.395Z,7.36
2018-03-06T12:56:39.128Z,7.30
2018-03-06T12:57:39.057Z,7.33
2018-03-06T12:59:30.806Z,7.39
2018-03-06T13:00:30.745Z,7.50
2018-03-06T13:02:22.511Z,7.60
2018-03-06T13:03:22.445Z,7.48
2018-03-06T13:05:14.187Z,7.52
2018-03-06T13:06:14.140Z,7.50
2018-03-06T13:08:05.902Z,7.42
2018-03-06T13:09:05.814Z,7.37
2018-03-06T13:10:57.604Z,7.21
2018-03-06T13:11:57.535Z,7.34
2018-03-06T13:13:49.266Z,7.30
2018-03-06T13:14:49.192Z,7.29
2018-03-06T13:16:40.976Z,7.24
2018-03-06T13:17:40.883Z,7.26
2018-03-06T13:19:32.640Z,7.33
2018-03-06T13:20:32.581Z,7.45
2018-03-06T13:22:24.346Z,7.29
2018-03-06T13:23:24.307Z,7.44
2018-03-06T13:25:16.044Z,7.48
2018-03-06T13:26:15.976Z,7.55
2018-03-06T13:28:07.737Z,7.45
2018-03-06T13:29:07.668Z,7.47
2018-03-06T13:30:59.457Z,7.55
2018-03-06T13:31:59.383Z,7.55
2018-03-06T13:33:51.151Z,7.42
2018-03-06T13:34:51.083Z,7.50
2018-03-06T13:36:42.847Z,7.24
2018-03-06T13:37:42.768Z,7.21
2018-03-06T13:39:34.556Z,7.14
2018-03-06T13:40:34.463Z,7.05
2018-03-06T13:42:26.263Z,7.09
2018-03-06T13:43:26.186Z,7.08
2018-03-06T13:45:17.959Z,6.99
2018-03-06T13:46:17.902Z,6.99
2018-03-06T13:48:09.775Z,6.99
2018-03-06T13:49:09.580Z,6.90
2018-03-06T13:51:01.337Z,6.87
2018-03-06T13:52:01.275Z,6.75
2018-03-06T13:53:53.106Z,6.87
2018-03-06T13:54:53.019Z,7.00
2018-03-06T13:56:44.756Z,7.01
2018-03-06T13:57:44.749Z,6.90
2018-03-06T13:59:36.447Z,6.73
2018-03-06T14:00:36.374Z,6.76
2018-03-06T14:02:28.144Z,6.75
2018-03-06T14:03:28.089Z,6.75
2018-03-06T14:05:19.846Z,6.76
2018-03-06T14:06:19.765Z,6.72
2018-03-06T14:08:11.520Z,6.58
2018-03-06T14:09:11.447Z,6.71
2018-03-06T14:11:03.224Z,6.78
2018-03-06T14:12:03.138Z,6.76
2018-03-06T14:13:54.911Z,6.60
2018-03-06T14:14:54.844Z,6.57
2018-03-06T14:16:46.576Z,6.50
2018-03-06T14:17:46.508Z,6.48
2018-03-06T14:19:38.320Z,6.36
2018-03-06T14:20:38.242Z,6.42
2018-03-06T14:22:29.968Z,6.27
2018-03-06T14:23:29.903Z,6.19
2018-03-06T14:25:21.711Z,6.01
2018-03-06T14:26:21.586Z,5.95
2018-03-06T14:28:13.361Z,5.84
2018-03-06T14:29:13.292Z,5.92
2018-03-06T14:31:05.054Z,5.70
2018-03-06T14:32:04.975Z,5.81
2018-03-06T14:33:56.722Z,5.77
2018-03-06T14:34:56.660Z,5.70
2018-03-06T14:36:48.475Z,5.73
2018-03-06T14:37:48.389Z,5.83
2018-03-06T14:39:40.181Z,5.81
2018-03-06T14:40:40.108Z,5.81
2018-03-06T14:42:31.859Z,5.74
2018-03-06T14:43:31.772Z,5.67
2018-03-06T14:45:23.530Z,5.66
2018-03-06T14:46:23.458Z,5.66
2018-03-06T14:48:15.211Z,5.69
2018-03-06T14:49:15.135Z,5.63
2018-03-06T14:51:06.948Z,5.62
2018-03-06T14:52:06.826Z,5.67
2018-03-06T14:53:58.593Z,5.69
2018-03-06T14:54:58.509Z,5.73
2018-03-06T14:56:50.270Z,5.81
2018-03-06T14:57:50.184Z,5.80
2018-03-06T14:59:41.956Z,5.70
2018-03-06T15:00:41.871Z,5.70
2018-03-06T15:02:33.626Z,5.75
2018-03-06T15:03:33.552Z,5.74
2018-03-06T15:05:25.308Z,5.67
2018-03-06T15:06:25.310Z,5.66
2018-03-06T15:08:16.979Z,5.70
2018-03-06T15:09:16.926Z,5.69
2018-03-06T15:11:08.673Z,5.63
2018-03-06T15:12:08.607Z,5.63
2018-03-06T15:14:00.364Z,5.62
2018-03-06T15:15:00.269Z,5.58
2018-03-06T15:16:52.021Z,5.67
2018-03-06T15:17:51.941Z,5.65
2018-03-06T15:19:43.723Z,5.62
2018-03-06T15:20:43.619Z,5.62
2018-03-06T15:22:35.380Z,5.69
2018-03-06T15:23:35.316Z,5.52
2018-03-06T15:25:27.079Z,5.56
2018-03-06T15:26:26.997Z,5.48
2018-03-06T15:28:18.742Z,5.58
2018-03-06T15:29:18.664Z,5.51
2018-03-06T15:31:10.506Z,5.56
2018-03-06T15:32:10.348Z,5.52
2018-03-06T15:34:02.102Z,5.51
2018-03-06T15:35:02.032Z,5.49
2018-03-06T15:36:53.825Z,5.51
2018-03-06T15:37:53.713Z,5.52
2018-03-06T15:39:45.465Z,5.55
2018-03-06T15:40:45.400Z,5.49
2018-03-06T15:42:37.178Z,5.45
2018-03-06T15:43:37.110Z,5.47
2018-03-06T15:45:28.882Z,5.37
2018-03-06T15:46:28.797Z,5.38
2018-03-06T15:48:20.618Z,5.40
2018-03-06T15:49:20.493Z,5.32
2018-03-06T15:51:12.262Z,5.27
2018-03-06T15:52:12.180Z,5.29
2018-03-06T15:54:03.924Z,5.17
2018-03-06T15:55:03.863Z,5.05
2018-03-06T15:56:55.620Z,5.06
2018-03-06T15:57:55.539Z,5.06
2018-03-06T15:59:47.294Z,5.08
2018-03-06T16:00:47.224Z,5.14
2018-03-06T16:02:38.994Z,5.08
2018-03-06T16:03:38.902Z,5.04
2018-03-06T16:05:30.683Z,5.06
2018-03-06T16:06:30.619Z,4.99
2018-03-06T16:08:22.369Z,5.06
2018-03-06T16:09:22.288Z,4.93
2018-03-06T16:11:14.040Z,4.96
2018-03-06T16:12:13.966Z,4.91
2018-03-06T16:14:05.720Z,4.96
2018-03-06T16:15:05.645Z,4.90
2018-03-06T16:16:57.405Z,4.86
2018-03-06T16:17:57.336Z,4.90
2018-03-06T16:19:49.155Z,4.83
2018-03-06T16:20:49.035Z,4.88
2018-03-06T16:22:40.808Z,4.88
2018-03-06T16:23:40.776Z,4.83
2018-03-06T16:25:32.486Z,4.88
2018-03-06T16:26:32.401Z,4.77
2018-03-06T16:28:24.207Z,4.79
2018-03-06T16:29:24.124Z,4.75
2018-03-06T16:31:15.875Z,4.74
2018-03-06T16:32:15.807Z,4.75
2018-03-06T16:34:07.581Z,4.74
2018-03-06T16:35:07.506Z,4.74
2018-03-06T16:36:59.276Z,4.65
2018-03-06T16:37:59.213Z,4.57
2018-03-06T16:39:50.965Z,4.46
2018-03-06T16:40:50.891Z,4.29
2018-03-06T16:42:42.641Z,4.29
2018-03-06T16:43:42.568Z,4.18
2018-03-06T16:45:34.404Z,4.04
2018-03-06T16:46:34.247Z,3.98
2018-03-06T16:48:26.016Z,3.82
2018-03-06T16:49:25.973Z,3.80
2018-03-06T16:51:17.729Z,3.71
2018-03-06T16:52:17.625Z,3.57
2018-03-06T16:54:09.389Z,3.50
2018-03-06T16:55:09.329Z,3.39
2018-03-06T16:57:01.062Z,3.19
2018-03-06T16:58:00.984Z,3.02
2018-03-06T16:59:52.736Z,2.81
2018-03-06T17:00:52.657Z,2.86
2018-03-06T17:02:44.406Z,2.74
2018-03-06T17:03:44.341Z,2.74
2018-03-06T17:05:36.113Z,2.69
2018-03-06T17:06:36.032Z,2.63
2018-03-06T17:08:27.764Z,2.50
2018-03-06T17:09:27.692Z,2.56
2018-03-06T17:11:19.442Z,2.50
2018-03-06T17:12:19.361Z,2.51
2018-03-06T17:14:11.110Z,2.44
2018-03-06T17:15:11.043Z,2.40
2018-03-06T17:17:02.804Z,2.40
2018-03-06T17:18:02.721Z,2.45
2018-03-06T17:19:54.525Z,2.55
2018-03-06T17:20:54.459Z,2.55
2018-03-06T17:22:46.352Z,2.51
2018-03-06T17:23:46.302Z,2.40
2018-03-06T17:25:38.019Z,2.56
2018-03-06T17:26:37.945Z,2.55
2018-03-06T17:28:29.729Z,2.53
2018-03-06T17:29:29.651Z,2.50
2018-03-06T17:31:21.443Z,2.47
2018-03-06T17:32:21.372Z,2.48
2018-03-06T17:34:13.110Z,2.41
2018-03-06T17:35:13.032Z,2.47
2018-03-06T17:37:04.821Z,2.47
2018-03-06T17:38:04.742Z,2.45
2018-03-06T17:39:56.501Z,2.47
2018-03-06T17:40:56.460Z,2.41
2018-03-06T17:42:48.274Z,2.36
2018-03-06T17:43:48.213Z,2.40
2018-03-06T17:45:39.947Z,2.32
2018-03-06T17:46:39.864Z,2.33
2018-03-06T17:48:31.684Z,2.37
2018-03-06T17:49:31.599Z,2.25
2018-03-06T17:51:23.359Z,2.18
2018-03-06T17:52:23.345Z,2.25
2018-03-06T17:54:15.043Z,2.32
2018-03-06T17:55:14.959Z,2.29
2018-03-06T17:57:06.701Z,2.32
2018-03-06T17:58:06.630Z,2.29
2018-03-06T17:59:58.417Z,2.33
2018-03-06T18:00:58.334Z,2.25
2018-03-06T18:02:50.108Z,2.27
2018-03-06T18:03:50.038Z,2.32
2018-03-06T18:05:41.783Z,2.25
2018-03-06T18:06:41.708Z,2.09
2018-03-06T18:08:33.508Z,2.18
2018-03-06T18:09:33.409Z,2.11
2018-03-06T18:11:25.148Z,2.08
2018-03-06T18:12:25.081Z,2.02
2018-03-06T18:14:16.830Z,1.98
2018-03-06T18:15:16.748Z,2.00
2018-03-06T18:17:08.492Z,1.92
2018-03-06T18:18:08.442Z,1.92
2018-03-06T18:20:00.185Z,1.83
2018-03-06T18:21:00.111Z,1.71
2018-03-06T18:22:51.905Z,1.83
2018-03-06T18:23:51.846Z,1.81
2018-03-06T18:25:43.656Z,1.72
2018-03-06T18:26:43.573Z,1.70
2018-03-06T18:28:35.354Z,1.82
2018-03-06T18:29:35.286Z,1.61
2018-03-06T18:31:27.064Z,1.67
2018-03-06T18:32:26.978Z,1.63
2018-03-06T18:34:18.733Z,1.57
2018-03-06T18:35:18.661Z,1.60
2018-03-06T18:37:10.479Z,1.56
2018-03-06T18:38:10.364Z,1.60
2018-03-06T18:40:02.141Z,1.67
2018-03-06T18:41:02.049Z,1.61
2018-03-06T18:42:53.779Z,1.63
2018-03-06T18:43:53.711Z,1.65
2018-03-06T18:45:45.556Z,1.63
2018-03-06T18:46:45.475Z,1.63
2018-03-06T18:48:37.217Z,1.67
2018-03-06T18:49:37.137Z,1.63
2018-03-06T18:51:28.907Z,1.60